Time;durP1;ratioP1;P1;durP2;ratioP2;P2;SDS_P1;SDS_P2;PMS_P1;PMS_P2;Temp;Humidity;BMP_temperature;BMP_pressure;BME280_temperature;BME280_humidity;BME280_pressure;Samples;Min_cycle;Max_cycle;Signal;HPM_P1;HPM_P2
2023/10/03 00:02:00;;;;;;;37.10;20.60;;;18.30;99.90;;;;;;5094833;28;20040;-71
2023/10/03 00:04:26;;;;;;;36.45;20.25;;;18.20;99.90;;;;;;5061497;28;20078;-71
2023/10/03 00:06:52;;;;;;;40.05;22.13;;;18.30;99.90;;;;;;5078089;28;20059;-71
2023/10/03 00:09:17;;;;;;;37.40;21.63;;;18.20;99.90;;;;;;5094522;28;20443;-73
2023/10/03 00:11:43;;;;;;;33.90;20.45;;;18.20;99.90;;;;;;5078024;28;20050;-71
2023/10/03 00:14:11;;;;;;;35.30;21.65;;;18.20;99.90;;;;;;5112925;28;20040;-71
2023/10/03 00:16:37;;;;;;;37.92;21.27;;;18.20;99.90;;;;;;5094796;28;20035;-71
2023/10/03 00:19:03;;;;;;;34.05;19.50;;;18.20;99.90;;;;;;5111574;28;20048;-71
2023/10/03 00:21:29;;;;;;;36.40;19.95;;;18.20;99.90;;;;;;5061111;28;20044;-72
2023/10/03 00:23:55;;;;;;;35.88;20.75;;;18.20;99.90;;;;;;5094763;28;20055;-71
2023/10/03 00:26:22;;;;;;;38.83;21.20;;;18.10;99.90;;;;;;5094564;28;20059;-71
2023/10/03 00:28:51;;;;;;;36.45;21.83;;;18.10;99.90;;;;;;5112822;28;20062;-70
2023/10/03 00:31:17;;;;;;;37.15;21.77;;;18.20;99.90;;;;;;5078291;28;20048;-72
2023/10/03 00:33:43;;;;;;;36.75;21.10;;;18.10;99.90;;;;;;5112452;28;20071;-71
2023/10/03 00:36:25;;;;;;;37.90;21.95;;;18.20;99.90;;;;;;5094480;28;20046;-70
2023/10/03 00:38:52;;;;;;;39.25;22.08;;;18.10;99.90;;;;;;5094036;28;20070;-70
2023/10/03 00:41:22;;;;;;;41.15;22.95;;;18.10;99.90;;;;;;5112899;28;20457;-71
2023/10/03 00:44:01;;;;;;;34.63;20.08;;;18.10;99.90;;;;;;5078984;28;20066;-71
2023/10/03 00:46:29;;;;;;;40.42;20.73;;;18.10;99.90;;;;;;5061607;28;20051;-72
2023/10/03 00:49:08;;;;;;;36.88;20.38;;;18.10;99.90;;;;;;5094618;28;20124;-73
2023/10/03 00:51:35;;;;;;;36.25;21.80;;;18.00;99.90;;;;;;5094339;28;20397;-71
2023/10/03 00:54:02;;;;;;;40.70;21.33;;;18.10;99.90;;;;;;5112058;28;20552;-72
2023/10/03 00:56:30;;;;;;;38.78;21.25;;;18.00;99.90;;;;;;5077534;28;20054;-71
2023/10/03 00:58:57;;;;;;;36.20;22.42;;;18.00;99.90;;;;;;5077858;28;20046;-72
2023/10/03 01:01:27;;;;;;;38.38;22.17;;;18.00;99.90;;;;;;5077800;28;20052;-71
2023/10/03 01:03:55;;;;;;;36.03;20.67;;;18.00;99.90;;;;;;5078233;28;20080;-71
2023/10/03 01:06:21;;;;;;;39.15;21.40;;;17.90;99.90;;;;;;5077774;28;20461;-72
2023/10/03 01:08:51;;;;;;;35.85;19.65;;;17.90;99.90;;;;;;5077049;28;20078;-71
2023/10/03 01:11:18;;;;;;;35.78;20.60;;;17.90;99.90;;;;;;5094441;28;20393;-71
2023/10/03 01:13:47;;;;;;;39.58;21.30;;;17.90;99.90;;;;;;5093829;28;20040;-71
2023/10/03 01:16:15;;;;;;;32.55;18.92;;;17.90;99.90;;;;;;5094174;28;20048;-71
2023/10/03 01:18:42;;;;;;;34.90;20.23;;;17.90;99.90;;;;;;5096506;28;20043;-71
2023/10/03 01:21:11;;;;;;;38.05;20.75;;;17.90;99.90;;;;;;5081902;28;20048;-71
2023/10/03 01:23:40;;;;;;;40.90;21.50;;;17.90;99.90;;;;;;5097469;28;20396;-71
2023/10/03 01:26:07;;;;;;;36.88;20.75;;;17.90;99.90;;;;;;5097762;28;20047;-72
2023/10/03 01:28:34;;;;;;;41.92;22.55;;;17.90;99.90;;;;;;5063929;28;20047;-72
2023/10/03 01:31:00;;;;;;;36.90;20.88;;;17.90;99.90;;;;;;5097675;28;20047;-72
2023/10/03 01:33:30;;;;;;;37.85;19.38;;;17.90;99.90;;;;;;5097295;28;20438;-71
2023/10/03 01:35:58;;;;;;;36.83;19.80;;;17.90;99.90;;;;;;5097271;28;20056;-72
2023/10/03 01:38:25;;;;;;;34.80;20.55;;;17.90;99.90;;;;;;5097284;28;20499;-71
2023/10/03 01:40:53;;;;;;;38.53;21.08;;;17.80;99.90;;;;;;5080209;28;20496;-72
2023/10/03 01:43:19;;;;;;;35.72;19.25;;;17.80;99.90;;;;;;5097467;28;20043;-71
2023/10/03 01:45:45;;;;;;;38.30;21.13;;;17.80;99.90;;;;;;5080162;28;20043;-71
2023/10/03 01:48:12;;;;;;;40.72;21.17;;;17.80;99.90;;;;;;5096923;28;20491;-71
2023/10/03 01:50:39;;;;;;;37.80;19.30;;;17.80;99.90;;;;;;5080422;28;20454;-71
2023/10/03 01:53:07;;;;;;;34.70;19.33;;;17.80;99.90;;;;;;5080162;28;20043;-71
2023/10/03 01:55:35;;;;;;;41.25;19.92;;;17.70;99.90;;;;;;5096787;28;20050;-72
2023/10/03 01:58:00;;;;;;;39.78;19.50;;;17.80;99.90;;;;;;5079995;28;20046;-72
2023/10/03 02:00:26;;;;;;;41.15;20.55;;;17.70;99.90;;;;;;5079884;28;20040;-71
2023/10/03 02:03:05;;;;;;;32.72;18.65;;;17.70;99.90;;;;;;5096674;28;20048;-70
2023/10/03 02:05:38;;;;;;;34.85;19.73;;;17.80;99.90;;;;;;5063758;28;20094;-70
2023/10/03 02:08:17;;;;;;;36.95;18.75;;;17.70;99.90;;;;;;5114968;28;20039;-70
2023/10/03 02:10:45;;;;;;;34.70;18.63;;;17.80;99.90;;;;;;5079565;28;20050;-70
2023/10/03 02:13:14;;;;;;;33.22;18.58;;;17.80;99.90;;;;;;5080160;28;20052;-70
2023/10/03 02:15:51;;;;;;;30.85;15.90;;;17.80;99.90;;;;;;5096419;28;20055;-70
2023/10/03 02:18:19;;;;;;;37.58;18.88;;;17.80;99.90;;;;;;5096824;28;20071;-70
2023/10/03 02:20:51;;;;;;;35.78;17.58;;;17.90;99.90;;;;;;5096413;28;20460;-71
2023/10/03 02:23:22;;;;;;;33.67;17.35;;;17.90;99.90;;;;;;5096500;28;20048;-71
2023/10/03 02:25:50;;;;;;;32.72;16.42;;;17.90;99.90;;;;;;5096576;28;20422;-71
2023/10/03 02:28:17;;;;;;;33.67;15.80;;;18.00;99.90;;;;;;5079909;28;20058;-71
2023/10/03 02:30:44;;;;;;;33.90;15.93;;;18.00;99.90;;;;;;5079225;28;20134;-72
2023/10/03 02:33:12;;;;;;;36.78;16.90;;;18.00;99.90;;;;;;5078977;28;20556;-71
2023/10/03 02:35:42;;;;;;;35.10;16.55;;;18.00;99.90;;;;;;5096143;28;20451;-73
2023/10/03 02:38:10;;;;;;;39.42;17.98;;;18.00;99.90;;;;;;5062882;28;20060;-71
2023/10/03 02:40:36;;;;;;;31.77;16.27;;;18.10;99.90;;;;;;5080020;28;20083;-71
2023/10/03 02:43:04;;;;;;;33.22;17.10;;;18.10;99.90;;;;;;5079205;28;20443;-71
2023/10/03 02:45:30;;;;;;;31.65;15.98;;;18.00;99.90;;;;;;5079692;28;20044;-71
2023/10/03 02:47:58;;;;;;;34.70;17.52;;;18.00;99.90;;;;;;5095834;28;20044;-71
2023/10/03 02:50:26;;;;;;;36.95;17.27;;;18.10;99.90;;;;;;5062867;28;20047;-71
2023/10/03 02:52:55;;;;;;;36.83;16.58;;;18.10;99.90;;;;;;5095678;28;20058;-71
2023/10/03 02:55:22;;;;;;;31.02;16.38;;;18.10;99.90;;;;;;5078503;28;20051;-70
2023/10/03 02:57:49;;;;;;;35.42;14.95;;;18.10;99.90;;;;;;5095392;28;20044;-71
2023/10/03 03:00:15;;;;;;;34.00;15.93;;;18.20;99.90;;;;;;5095862;28;20353;-72
2023/10/03 03:02:42;;;;;;;31.80;16.52;;;18.20;99.90;;;;;;5095519;28;20043;-71
2023/10/03 03:05:15;;;;;;;33.20;16.73;;;18.30;99.90;;;;;;5095609;28;20058;-70
2023/10/03 03:07:49;;;;;;;33.17;15.75;;;18.30;99.90;;;;;;5096106;28;20503;-69
2023/10/03 03:10:18;;;;;;;34.72;15.82;;;18.30;99.90;;;;;;5095598;28;20544;-69
2023/10/03 03:12:44;;;;;;;38.38;15.32;;;18.40;99.90;;;;;;5095281;28;20105;-72
2023/10/03 03:15:12;;;;;;;34.63;15.50;;;18.40;99.90;;;;;;5078584;28;20488;-71
2023/10/03 03:17:40;;;;;;;32.08;16.30;;;18.40;99.90;;;;;;5095325;28;20043;-70
2023/10/03 03:20:17;;;;;;;33.75;16.20;;;18.40;99.90;;;;;;5095480;28;20050;-71
2023/10/03 03:22:50;;;;;;;35.38;16.75;;;18.40;99.90;;;;;;5063115;28;20047;-71
2023/10/03 03:25:35;;;;;;;30.70;15.23;;;18.40;99.90;;;;;;5113692;28;20127;-71
2023/10/03 03:28:02;;;;;;;29.90;15.65;;;18.40;99.90;;;;;;5095306;28;20043;-71
2023/10/03 03:32:54;;;;;;;32.92;16.05;;;18.40;99.90;;;;;;5078023;28;20062;-71
2023/10/03 03:35:24;;;;;;;30.77;14.70;;;18.40;99.90;;;;;;5078901;28;20134;-71
2023/10/03 03:37:55;;;;;;;32.72;16.73;;;18.40;99.90;;;;;;5078607;28;20047;-72
2023/10/03 03:40:29;;;;;;;34.40;16.63;;;18.40;99.90;;;;;;5095202;28;20062;-71
2023/10/03 03:43:00;;;;;;;29.80;15.45;;;18.40;99.90;;;;;;5095636;28;20062;-71
2023/10/03 03:45:26;;;;;;;29.55;14.48;;;18.30;99.90;;;;;;5095702;28;20156;-71
2023/10/03 03:47:54;;;;;;;30.00;15.00;;;18.30;99.90;;;;;;5078143;28;20138;-71
2023/10/03 03:50:24;;;;;;;29.95;15.32;;;18.30;99.90;;;;;;5061922;28;20047;-70
2023/10/03 03:52:51;;;;;;;36.80;17.20;;;18.40;99.90;;;;;;5095185;28;20039;-73
2023/10/03 03:55:17;;;;;;;31.23;15.95;;;18.30;99.90;;;;;;5113026;28;20047;-71
2023/10/03 03:57:45;;;;;;;30.00;13.93;;;18.30;99.90;;;;;;5078337;28;20035;-71
2023/10/03 04:00:22;;;;;;;35.13;14.18;;;18.30;99.90;;;;;;5078484;28;20477;-71
2023/10/03 04:02:48;;;;;;;29.58;14.75;;;18.40;99.90;;;;;;5095254;28;20071;-71
2023/10/03 04:05:20;;;;;;;30.35;15.70;;;18.40;99.90;;;;;;5111698;28;20104;-71
2023/10/03 04:07:46;;;;;;;28.23;14.38;;;18.40;99.90;;;;;;5062574;28;20139;-71
2023/10/03 04:10:13;;;;;;;32.72;15.85;;;18.40;99.90;;;;;;5077984;28;20051;-71
2023/10/03 04:12:42;;;;;;;30.42;14.70;;;18.40;99.90;;;;;;5095217;28;20055;-71
2023/10/03 04:15:12;;;;;;;25.33;11.82;;;18.40;99.90;;;;;;5077830;28;20515;-71
2023/10/03 04:17:42;;;;;;;32.78;15.18;;;18.40;99.90;;;;;;5061161;28;20139;-71
2023/10/03 04:22:43;;;;;;;32.35;14.80;;;18.40;99.90;;;;;;5095065;28;20083;-70
2023/10/03 04:25:13;;;;;;;27.75;13.73;;;18.40;99.90;;;;;;5094085;28;20101;-70
2023/10/03 04:27:39;;;;;;;32.72;15.00;;;18.40;99.90;;;;;;5078476;28;20056;-70
2023/10/03 04:30:09;;;;;;;29.05;13.60;;;18.40;99.90;;;;;;5077992;28;20047;-70
2023/10/03 04:32:35;;;;;;;27.75;13.57;;;18.40;99.90;;;;;;5094594;28;20056;-70
2023/10/03 04:35:03;;;;;;;27.67;12.95;;;18.40;99.90;;;;;;5094322;28;20504;-70
2023/10/03 04:37:29;;;;;;;29.05;15.07;;;18.40;99.90;;;;;;5078015;28;20048;-70
2023/10/03 04:39:56;;;;;;;31.45;14.93;;;18.40;99.90;;;;;;5094795;28;20059;-70
2023/10/03 04:42:22;;;;;;;32.58;14.02;;;18.40;99.90;;;;;;5094477;28;20130;-70
2023/10/03 04:44:48;;;;;;;29.65;14.13;;;18.40;99.90;;;;;;5077642;28;20416;-69
2023/10/03 04:47:14;;;;;;;29.23;14.18;;;18.50;99.90;;;;;;5094007;28;20063;-71
2023/10/03 04:49:39;;;;;;;27.98;14.40;;;18.50;99.90;;;;;;5060688;28;20405;-70
2023/10/03 04:52:07;;;;;;;31.15;14.75;;;18.50;99.90;;;;;;5093938;28;20043;-71
2023/10/03 04:54:34;;;;;;;29.77;13.77;;;18.50;99.90;;;;;;5115069;28;20051;-71
2023/10/03 04:56:59;;;;;;;32.97;13.85;;;18.60;99.90;;;;;;5098079;28;20130;-72
2023/10/03 04:59:25;;;;;;;27.88;13.30;;;18.60;99.90;;;;;;5097859;28;20151;-70
2023/10/03 05:01:51;;;;;;;32.90;13.70;;;18.60;99.90;;;;;;5098362;28;20496;-70
2023/10/03 05:04:17;;;;;;;29.10;14.90;;;18.70;99.90;;;;;;5081683;28;20043;-70
2023/10/03 05:06:43;;;;;;;28.58;12.98;;;18.70;99.90;;;;;;5098671;28;20108;-70
2023/10/03 05:09:09;;;;;;;29.42;14.40;;;18.80;99.90;;;;;;5098247;28;20047;-70
2023/10/03 05:11:35;;;;;;;31.00;14.20;;;18.80;99.90;;;;;;5098490;28;20087;-70
2023/10/03 05:14:01;;;;;;;31.05;14.95;;;18.80;99.90;;;;;;5098489;28;20039;-72
2023/10/03 05:16:26;;;;;;;30.40;13.95;;;18.80;99.90;;;;;;5097600;28;20047;-70
2023/10/03 05:18:52;;;;;;;27.88;13.65;;;18.80;99.90;;;;;;5081100;28;20048;-71
2023/10/03 05:21:18;;;;;;;27.08;13.07;;;18.80;99.90;;;;;;5081035;28;20062;-71
2023/10/03 05:23:44;;;;;;;27.02;13.95;;;18.80;99.90;;;;;;5097781;28;20134;-71
2023/10/03 05:26:09;;;;;;;28.40;13.90;;;18.80;99.90;;;;;;5097275;28;20039;-71
2023/10/03 05:28:39;;;;;;;26.98;13.85;;;18.80;99.90;;;;;;5097670;28;20040;-70
2023/10/03 05:31:12;;;;;;;31.60;13.55;;;18.90;99.90;;;;;;5080434;28;20077;-73
2023/10/03 05:33:38;;;;;;;26.30;13.10;;;18.90;99.90;;;;;;5065715;28;20055;-71
2023/10/03 05:36:04;;;;;;;30.45;13.40;;;18.90;99.90;;;;;;5080736;28;20056;-72
2023/10/03 05:38:30;;;;;;;30.27;13.07;;;18.90;99.90;;;;;;5080450;28;20063;-71
2023/10/03 05:40:57;;;;;;;30.38;12.35;;;19.00;99.90;;;;;;5097571;28;20043;-71
2023/10/03 05:43:23;;;;;;;31.40;13.98;;;19.00;99.90;;;;;;5080188;28;20404;-70
2023/10/03 05:45:49;;;;;;;30.48;12.98;;;19.00;99.90;;;;;;5080345;28;20040;-70
2023/10/03 05:48:17;;;;;;;35.53;14.45;;;19.00;99.90;;;;;;5080197;28;20093;-70
2023/10/03 05:50:43;;;;;;;28.92;13.38;;;19.00;99.90;;;;;;5097591;28;20118;-70
2023/10/03 05:53:08;;;;;;;27.77;13.80;;;19.00;99.90;;;;;;5079939;28;20116;-72
2023/10/03 05:55:34;;;;;;;27.88;13.73;;;19.10;99.90;;;;;;5080151;28;20131;-72
2023/10/03 05:58:00;;;;;;;28.67;13.50;;;19.10;99.90;;;;;;5064019;28;20036;-71
2023/10/03 06:00:26;;;;;;;30.48;13.75;;;19.10;99.90;;;;;;5080636;28;20058;-71
2023/10/03 06:02:52;;;;;;;33.05;13.65;;;19.10;99.90;;;;;;5097568;28;20131;-72
2023/10/03 06:05:18;;;;;;;32.50;13.85;;;19.10;99.90;;;;;;5113606;28;20058;-71
2023/10/03 06:07:44;;;;;;;31.52;14.73;;;19.10;99.90;;;;;;5080382;28;20109;-71
2023/10/03 06:10:11;;;;;;;31.10;14.52;;;19.10;99.90;;;;;;5096490;28;20044;-73
2023/10/03 06:12:37;;;;;;;30.08;14.20;;;19.10;99.90;;;;;;5096961;28;20047;-71
2023/10/03 06:15:05;;;;;;;30.58;14.68;;;19.10;99.90;;;;;;5114919;28;20050;-70
2023/10/03 06:17:34;;;;;;;32.50;14.52;;;19.10;99.90;;;;;;5080082;28;20070;-70
2023/10/03 06:20:00;;;;;;;32.30;14.45;;;19.10;99.90;;;;;;5097095;28;20047;-70
2023/10/03 06:22:26;;;;;;;34.25;13.82;;;19.20;99.90;;;;;;5080099;28;20080;-70
2023/10/03 06:24:57;;;;;;;30.90;13.70;;;19.20;99.90;;;;;;5114315;28;20532;-70
2023/10/03 06:27:23;;;;;;;29.80;14.13;;;19.20;99.90;;;;;;5112949;28;20181;-70
2023/10/03 06:29:49;;;;;;;32.92;14.93;;;19.10;99.90;;;;;;5114422;28;20059;-70
2023/10/03 06:32:15;;;;;;;30.75;13.98;;;19.20;99.90;;;;;;5113935;28;20043;-71
2023/10/03 06:34:40;;;;;;;29.15;13.32;;;19.20;99.90;;;;;;5079096;28;20095;-70
2023/10/03 06:37:06;;;;;;;25.83;12.60;;;19.20;99.90;;;;;;5079945;28;20050;-69
2023/10/03 06:39:32;;;;;;;25.10;12.57;;;19.20;99.90;;;;;;5114774;28;20040;-73
2023/10/03 06:41:58;;;;;;;26.55;12.48;;;19.20;99.90;;;;;;5097766;28;20047;-74
2023/10/03 06:44:24;;;;;;;30.20;12.50;;;19.20;99.90;;;;;;5096268;28;20051;-73
2023/10/03 06:46:50;;;;;;;25.15;12.45;;;19.20;99.90;;;;;;5114474;28;20477;-74
2023/10/03 06:49:17;;;;;;;30.98;12.15;;;19.10;99.90;;;;;;5096171;28;20051;-73
2023/10/03 06:51:45;;;;;;;29.13;12.27;;;19.10;99.90;;;;;;5096432;28;20052;-72
2023/10/03 06:54:10;;;;;;;31.88;12.35;;;19.10;99.90;;;;;;5079706;28;20078;-74
2023/10/03 06:56:36;;;;;;;27.27;11.73;;;19.10;99.90;;;;;;5095797;28;20035;-76
2023/10/03 06:59:04;;;;;;;25.55;11.52;;;19.00;99.90;;;;;;5114043;28;20549;-74
2023/10/03 07:01:30;;;;;;;25.88;10.40;;;18.90;99.90;;;;;;5112592;28;20401;-74
2023/10/03 07:03:57;;;;;;;22.15;9.23;;;18.80;99.90;;;;;;5079100;28;20171;-75
2023/10/03 07:06:24;;;;;;;21.25;9.55;;;18.80;99.90;;;;;;5079758;28;20048;-75
2023/10/03 07:08:49;;;;;;;24.98;9.48;;;18.70;99.90;;;;;;5079647;28;20109;-75
2023/10/03 07:11:16;;;;;;;20.88;8.90;;;18.70;99.90;;;;;;5096081;28;20202;-74
2023/10/03 07:13:43;;;;;;;19.13;8.60;;;18.70;99.90;;;;;;5078891;28;20039;-73
2023/10/03 07:16:09;;;;;;;21.98;8.20;;;18.60;99.90;;;;;;5061858;28;20055;-74
2023/10/03 07:18:35;;;;;;;21.38;9.02;;;18.60;99.90;;;;;;5095624;28;20039;-72
2023/10/03 07:21:03;;;;;;;22.95;8.95;;;18.60;99.90;;;;;;5079491;28;20040;-73
2023/10/03 07:23:29;;;;;;;21.95;9.07;;;18.50;99.90;;;;;;5079460;28;20073;-73
2023/10/03 07:25:55;;;;;;;17.02;8.98;;;18.50;99.90;;;;;;5096853;28;20043;-74
2023/10/03 07:28:20;;;;;;;27.95;9.32;;;18.50;99.90;;;;;;5079460;28;20369;-76
2023/10/03 07:30:46;;;;;;;21.45;9.40;;;18.40;99.90;;;;;;5062377;28;20048;-75
2023/10/03 07:33:12;;;;;;;20.67;8.73;;;18.40;99.90;;;;;;5097064;28;20058;-73
2023/10/03 07:35:41;;;;;;;23.45;8.80;;;18.40;99.90;;;;;;5061760;28;20052;-72
2023/10/03 07:38:10;;;;;;;28.35;9.02;;;18.40;99.90;;;;;;5079050;28;20127;-76
2023/10/03 07:40:38;;;;;;;20.05;6.97;;;18.30;99.90;;;;;;5095379;28;20043;-75
2023/10/03 07:43:09;;;;;;;21.35;7.30;;;18.30;99.90;;;;;;5095689;28;20054;-73
2023/10/03 07:45:37;;;;;;;23.88;7.07;;;18.20;99.90;;;;;;5078697;28;20389;-73
2023/10/03 07:48:04;;;;;;;22.60;7.05;;;18.20;99.90;;;;;;5095229;28;20039;-73
2023/10/03 07:50:31;;;;;;;21.45;6.15;;;18.10;99.90;;;;;;5078650;28;20047;-74
2023/10/03 07:52:57;;;;;;;20.40;6.30;;;18.10;99.90;;;;;;5095488;28;20514;-73
2023/10/03 07:55:26;;;;;;;18.73;6.00;;;18.10;99.90;;;;;;5078378;28;20435;-73
2023/10/03 07:57:54;;;;;;;20.05;5.63;;;18.00;99.90;;;;;;5078612;28;20491;-73
2023/10/03 08:00:26;;;;;;;14.65;5.50;;;18.00;99.90;;;;;;5095152;28;20063;-73
2023/10/03 08:02:55;;;;;;;17.20;5.30;;;18.00;99.90;;;;;;5095436;28;20196;-73
2023/10/03 08:05:27;;;;;;;16.83;4.72;;;17.90;99.90;;;;;;5078514;28;20062;-72
2023/10/03 08:07:54;;;;;;;16.98;4.57;;;17.80;99.90;;;;;;5095039;28;20083;-72
2023/10/03 08:10:19;;;;;;;11.63;3.40;;;17.70;99.90;;;;;;5061871;28;20485;-72
2023/10/03 08:12:47;;;;;;;13.35;3.13;;;17.70;99.90;;;;;;5094594;28;20051;-72
2023/10/03 08:15:19;;;;;;;14.07;3.50;;;17.60;99.90;;;;;;5094965;28;20097;-72
2023/10/03 08:17:48;;;;;;;14.05;3.33;;;17.50;99.90;;;;;;5094434;28;20090;-71
2023/10/03 08:20:15;;;;;;;10.68;2.92;;;17.40;99.90;;;;;;5112836;28;20478;-73
2023/10/03 08:22:41;;;;;;;14.27;2.80;;;17.40;99.90;;;;;;5112268;28;20079;-71
2023/10/03 08:25:10;;;;;;;9.20;2.47;;;17.40;99.90;;;;;;5094480;28;20047;-72
2023/10/03 08:27:36;;;;;;;13.73;2.70;;;17.40;99.90;;;;;;5097610;28;20040;-72
2023/10/03 08:30:04;;;;;;;10.15;2.22;;;17.30;99.90;;;;;;5117473;28;20507;-73
2023/10/03 08:32:39;;;;;;;13.80;2.63;;;17.30;99.90;;;;;;5098762;28;20062;-71
2023/10/03 08:35:08;;;;;;;12.32;2.30;;;17.30;99.90;;;;;;5067390;28;20138;-72
2023/10/03 08:37:38;;;;;;;10.60;2.40;;;17.30;99.90;;;;;;5098853;28;20043;-72
2023/10/03 08:40:19;;;;;;;10.18;2.25;;;17.30;99.90;;;;;;5099798;28;20062;-73
2023/10/03 08:42:52;;;;;;;10.93;2.30;;;17.30;99.90;;;;;;5083996;28;20048;-72
2023/10/03 08:45:25;;;;;;;8.95;2.08;;;17.30;99.90;;;;;;5117152;28;20051;-73
2023/10/03 08:47:53;;;;;;;8.07;2.40;;;17.40;99.90;;;;;;5082953;28;20091;-73
2023/10/03 08:50:29;;;;;;;6.28;1.80;;;17.40;99.90;;;;;;5097326;28;20043;-74
2023/10/03 08:52:56;;;;;;;8.18;1.63;;;17.40;99.90;;;;;;5116155;28;20036;-72
2023/10/03 08:55:26;;;;;;;8.32;1.92;;;17.40;99.90;;;;;;5099832;28;20056;-72
2023/10/03 08:57:52;;;;;;;8.30;1.52;;;17.30;99.90;;;;;;5099220;28;20079;-74
2023/10/03 09:00:25;;;;;;;5.95;1.48;;;17.20;99.90;;;;;;5098357;28;20055;-73
2023/10/03 09:03:09;;;;;;;4.72;1.45;;;17.10;99.90;;;;;;5081413;28;20424;-72
2023/10/03 09:05:39;;;;;;;7.30;1.60;;;16.90;99.90;;;;;;5081545;28;20557;-72
2023/10/03 09:08:16;;;;;;;8.32;1.70;;;16.80;99.90;;;;;;5098882;28;20057;-73
2023/10/03 09:10:52;;;;;;;5.93;1.50;;;16.70;99.90;;;;;;5098086;28;20105;-73
2023/10/03 09:13:27;;;;;;;8.32;2.10;;;16.60;99.90;;;;;;5098540;28;20051;-73
2023/10/03 09:16:00;;;;;;;12.93;2.13;;;16.60;99.90;;;;;;5098450;28;20104;-73
2023/10/03 09:18:31;;;;;;;9.85;1.63;;;16.50;99.90;;;;;;5098657;28;20073;-74
2023/10/03 09:20:59;;;;;;;5.32;1.30;;;16.50;99.90;;;;;;5098534;28;20122;-74
2023/10/03 09:23:37;;;;;;;6.10;1.55;;;16.50;99.90;;;;;;5098852;28;20397;-74
2023/10/03 09:26:06;;;;;;;3.42;1.15;;;16.50;99.90;;;;;;5116523;28;20452;-75
2023/10/03 09:28:35;;;;;;;5.03;1.45;;;16.50;99.90;;;;;;5097656;28;20058;-75
2023/10/03 09:31:10;;;;;;;4.30;1.23;;;16.50;99.90;;;;;;5097255;28;20039;-75
2023/10/03 09:33:39;;;;;;;6.65;1.40;;;16.40;99.90;;;;;;5097509;28;20070;-74
2023/10/03 09:36:06;;;;;;;4.85;1.42;;;16.40;99.90;;;;;;5115504;28;20083;-75
2023/10/03 09:38:44;;;;;;;2.67;0.90;;;16.40;99.90;;;;;;5096443;28;20043;-75
2023/10/03 09:41:17;;;;;;;5.57;1.38;;;16.50;99.90;;;;;;5097523;28;20043;-72
2023/10/03 09:43:49;;;;;;;5.82;1.13;;;16.40;99.90;;;;;;5115126;28;20059;-73
2023/10/03 09:46:23;;;;;;;6.15;1.30;;;16.40;99.90;;;;;;5096882;28;20100;-72
2023/10/03 09:48:53;;;;;;;;;;;16.40;99.90;;;;;;5097426;28;20127;-72
2023/10/03 09:51:45;;;;;;;4.75;1.40;;;16.30;99.90;;;;;;5096912;28;19920;-69
2023/10/03 09:54:15;;;;;;;4.03;1.30;;;16.20;99.90;;;;;;5097387;28;20047;-75
2023/10/03 09:56:44;;;;;;;5.97;1.15;;;16.10;99.90;;;;;;5116088;28;20047;-74
2023/10/03 09:59:17;;;;;;;4.03;1.25;;;16.10;99.90;;;;;;5098380;28;20054;-74
2023/10/03 10:01:45;;;;;;;6.03;1.50;;;16.10;99.90;;;;;;5065488;28;20184;-74
2023/10/03 10:04:15;;;;;;;11.80;1.80;;;16.10;99.90;;;;;;5081860;28;20370;-75
2023/10/03 10:06:49;;;;;;;6.38;1.23;;;16.10;99.90;;;;;;5116413;28;20089;-75
2023/10/03 10:09:27;;;;;;;4.50;1.00;;;16.10;99.90;;;;;;5082616;28;20039;-75
2023/10/03 10:12:13;;;;;;;4.57;1.20;;;16.10;99.90;;;;;;5115649;28;20509;-73
2023/10/03 10:15:01;;;;;;;3.75;0.90;;;16.00;99.90;;;;;;5063232;28;20054;-73
2023/10/03 10:17:41;;;;;;;4.90;1.15;;;15.90;99.90;;;;;;5096955;28;20048;-72
2023/10/03 10:20:27;;;;;;;6.25;1.58;;;15.90;99.90;;;;;;5096205;28;20059;-75
2023/10/03 10:22:59;;;;;;;4.43;1.23;;;15.90;99.90;;;;;;5080632;28;20044;-76
2023/10/03 10:25:28;;;;;;;4.63;1.20;;;15.90;99.90;;;;;;5116317;28;20065;-76
2023/10/03 10:28:05;;;;;;;4.97;1.27;;;15.90;99.90;;;;;;5097012;28;20497;-75
2023/10/03 10:30:34;;;;;;;7.35;2.15;;;15.90;99.90;;;;;;5098589;28;20561;-76
2023/10/03 10:33:16;;;;;;;6.40;1.55;;;15.90;99.90;;;;;;5078890;28;20056;-75
2023/10/03 10:36:03;;;;;;;8.75;2.08;;;15.90;99.90;;;;;;5096401;28;20073;-76
2023/10/03 10:38:32;;;;;;;7.47;1.88;;;15.90;99.90;;;;;;5096720;28;20039;-76
2023/10/03 10:44:06;;;;;;;11.32;2.33;;;15.90;99.90;;;;;;5097108;28;20047;-78
2023/10/03 10:46:35;;;;;;;8.05;2.17;;;15.90;99.90;;;;;;5115284;28;20043;-75
2023/10/03 10:49:06;;;;;;;6.63;2.17;;;16.00;99.90;;;;;;5114405;28;20392;-76
2023/10/03 10:51:34;;;;;;;8.20;2.90;;;16.00;99.90;;;;;;5080592;28;20127;-77
2023/10/03 10:54:04;;;;;;;7.88;2.50;;;16.10;99.90;;;;;;5079133;28;20092;-77
2023/10/03 10:56:32;;;;;;;8.35;3.05;;;16.10;99.90;;;;;;5096234;28;20043;-77
2023/10/03 10:59:07;;;;;;;10.48;3.40;;;16.10;99.90;;;;;;5115367;28;20245;-77
2023/10/03 11:01:39;;;;;;;14.38;4.03;;;16.20;99.90;;;;;;5082159;28;20055;-77
2023/10/03 11:04:06;;;;;;;12.35;3.72;;;16.20;99.90;;;;;;5113658;28;20126;-76
2023/10/03 11:06:32;;;;;;;8.70;2.92;;;16.20;99.90;;;;;;5096525;28;20393;-77
2023/10/03 11:08:58;;;;;;;10.75;3.03;;;16.20;99.90;;;;;;5096395;28;20058;-75
2023/10/03 11:11:35;;;;;;;9.35;4.30;;;16.20;99.90;;;;;;5114634;28;20048;-76
2023/10/03 11:14:01;;;;;;;12.75;5.65;;;16.20;99.90;;;;;;5078846;28;20044;-77
2023/10/03 11:16:27;;;;;;;12.88;4.95;;;16.20;99.90;;;;;;5113675;28;20162;-76
2023/10/03 11:18:54;;;;;;;13.23;4.70;;;16.20;99.90;;;;;;5095895;28;20120;-74
2023/10/03 11:21:25;;;;;;;9.88;3.75;;;16.20;99.90;;;;;;5096596;28;20055;-76
2023/10/03 11:24:09;;;;;;;13.07;4.20;;;16.20;99.90;;;;;;5114244;28;20040;-76
2023/10/03 11:26:53;;;;;;;9.25;3.95;;;16.20;99.90;;;;;;5096360;28;20485;-77
2023/10/03 11:29:57;;;;;;;12.65;5.40;;;16.30;99.90;;;;;;5114178;28;20043;-77
2023/10/03 11:32:26;;;;;;;11.75;4.72;;;16.30;99.90;;;;;;5012671;28;20049;-77
2023/10/03 11:34:53;;;;;;;12.45;5.45;;;16.30;99.90;;;;;;4995114;28;20045;-76
2023/10/03 11:37:29;;;;;;;11.18;4.28;;;16.30;99.90;;;;;;5046740;28;20048;-77
2023/10/03 11:40:08;;;;;;;10.35;3.05;;;16.30;99.90;;;;;;5096765;28;20050;-74
2023/10/03 11:42:47;;;;;;;7.47;2.90;;;16.30;99.90;;;;;;5080230;28;20043;-75
2023/10/03 11:45:23;;;;;;;13.45;4.70;;;16.30;99.90;;;;;;5096150;28;20043;-74
2023/10/03 11:48:31;;;;;;;18.35;6.35;;;16.40;99.90;;;;;;5079620;28;20397;-73
2023/10/03 11:50:58;;;;;;;9.27;3.58;;;16.50;99.90;;;;;;5009803;28;20216;-74
2023/10/03 11:53:24;;;;;;;8.20;3.63;;;16.40;99.90;;;;;;5011032;28;20056;-74
2023/10/03 11:55:52;;;;;;;8.90;2.85;;;16.60;99.90;;;;;;5061773;28;20493;-73
2023/10/03 11:58:18;;;;;;;14.10;3.25;;;16.60;99.90;;;;;;5094790;28;20035;-74
2023/10/03 12:00:44;;;;;;;9.07;2.85;;;16.60;99.90;;;;;;5113156;28;20044;-73
2023/10/03 12:03:11;;;;;;;9.02;3.00;;;16.60;99.90;;;;;;5094840;28;20504;-74
2023/10/03 12:05:37;;;;;;;9.15;2.85;;;16.60;99.90;;;;;;5095922;28;20062;-74
2023/10/03 12:08:05;;;;;;;8.52;3.03;;;16.50;99.90;;;;;;5094401;28;20068;-74
2023/10/03 12:10:31;;;;;;;9.07;2.38;;;16.40;99.90;;;;;;5113427;28;20467;-74
2023/10/03 12:12:58;;;;;;;9.05;2.50;;;16.40;99.90;;;;;;5093852;28;20048;-74
2023/10/03 12:15:24;;;;;;;8.55;2.40;;;16.20;99.90;;;;;;5094992;28;20055;-74
2023/10/03 12:17:51;;;;;;;8.43;2.50;;;16.10;99.90;;;;;;5095133;28;20047;-73
2023/10/03 12:20:18;;;;;;;6.40;2.30;;;16.00;99.90;;;;;;5077475;28;20085;-73
2023/10/03 12:22:49;;;;;;;10.25;3.20;;;16.00;99.90;;;;;;5094872;28;20040;-73
2023/10/03 12:25:17;;;;;;;7.75;2.58;;;16.00;99.90;;;;;;5095331;28;20047;-73
2023/10/03 12:27:43;;;;;;;9.73;2.80;;;15.90;99.90;;;;;;5113500;28;20073;-75
2023/10/03 12:30:11;;;;;;;10.60;3.15;;;15.90;99.90;;;;;;5080176;28;20048;-71
2023/10/03 12:32:45;;;;;;;9.20;2.88;;;15.90;99.90;;;;;;5095344;28;20043;-72
2023/10/03 12:35:11;;;;;;;12.73;3.40;;;16.00;99.90;;;;;;5077366;28;20051;-72
2023/10/03 12:37:38;;;;;;;9.60;2.80;;;16.00;99.90;;;;;;5112531;28;20047;-72
2023/10/03 12:40:13;;;;;;;10.38;2.78;;;16.10;99.90;;;;;;5077869;28;20056;-74
2023/10/03 12:42:47;;;;;;;11.60;3.17;;;16.20;99.90;;;;;;5062486;28;20047;-74
2023/10/03 12:45:20;;;;;;;;;;;16.30;99.90;;;;;;5113642;28;20043;-75
2023/10/03 12:47:52;;;;;;;9.82;2.45;;;16.30;99.90;;;;;;5095201;28;19920;-73
2023/10/03 12:50:23;;;;;;;8.30;2.67;;;16.30;99.90;;;;;;5112942;28;20048;-71
2023/10/03 12:52:53;;;;;;;7.68;2.40;;;16.40;99.90;;;;;;5077996;28;20043;-72